sensor_id;sensor_type;location;lat;lon;timestamp;pressure;altitude;pressure_sealevel;temperature;humidity
50368;BME280;36281;34.132;-118.018;2023-03-21T00:00:54;99777.38;;;17.91;59.43
50368;BME280;36281;34.132;-118.018;2023-03-21T00:03:23;99781.97;;;18.00;58.21
50368;BME280;36281;34.132;-118.018;2023-03-21T00:05:55;99772.84;;;18.01;57.81
50368;BME280;36281;34.132;-118.018;2023-03-21T00:08:25;99765.88;;;18.00;57.79
50368;BME280;36281;34.132;-118.018;2023-03-21T00:10:56;99767.19;;;17.93;57.92
50368;BME280;36281;34.132;-118.018;2023-03-21T00:13:26;99790.72;;;17.80;57.09
50368;BME280;36281;34.132;-118.018;2023-03-21T00:15:55;99787.47;;;17.73;58.52
50368;BME280;36281;34.132;-118.018;2023-03-21T00:18:42;99780.69;;;17.61;58.64
50368;BME280;36281;34.132;-118.018;2023-03-21T00:21:17;99769.63;;;17.47;59.09
50368;BME280;36281;34.132;-118.018;2023-03-21T00:24:06;99790.50;;;17.50;59.05
50368;BME280;36281;34.132;-118.018;2023-03-21T00:26:36;99785.41;;;17.48;59.34
50368;BME280;36281;34.132;-118.018;2023-03-21T00:29:05;99775.22;;;17.45;59.82
50368;BME280;36281;34.132;-118.018;2023-03-21T00:31:34;99773.09;;;17.47;60.71
50368;BME280;36281;34.132;-118.018;2023-03-21T00:34:03;99769.34;;;17.48;60.28
50368;BME280;36281;34.132;-118.018;2023-03-21T00:36:34;99764.50;;;17.45;60.57
50368;BME280;36281;34.132;-118.018;2023-03-21T00:39:03;99770.38;;;17.37;60.46
50368;BME280;36281;34.132;-118.018;2023-03-21T00:41:33;99764.94;;;17.27;60.40
50368;BME280;36281;34.132;-118.018;2023-03-21T00:44:09;99767.56;;;17.17;60.53
50368;BME280;36281;34.132;-118.018;2023-03-21T00:46:41;99763.47;;;17.09;60.56
50368;BME280;36281;34.132;-118.018;2023-03-21T00:49:23;99755.66;;;16.97;61.02
50368;BME280;36281;34.132;-118.018;2023-03-21T00:51:55;99751.06;;;16.93;61.11
50368;BME280;36281;34.132;-118.018;2023-03-21T00:54:39;99747.78;;;16.86;62.03
50368;BME280;36281;34.132;-118.018;2023-03-21T00:57:08;99738.38;;;16.78;61.82
50368;BME280;36281;34.132;-118.018;2023-03-21T00:59:37;99742.88;;;16.72;61.83
50368;BME280;36281;34.132;-118.018;2023-03-21T01:02:06;99747.88;;;16.69;62.03
50368;BME280;36281;34.132;-118.018;2023-03-21T01:04:35;99753.19;;;16.64;62.36
50368;BME280;36281;34.132;-118.018;2023-03-21T01:07:06;99757.66;;;16.53;62.81
50368;BME280;36281;34.132;-118.018;2023-03-21T01:09:38;99755.19;;;16.46;63.14
50368;BME280;36281;34.132;-118.018;2023-03-21T01:12:07;99747.34;;;16.40;63.08
50368;BME280;36281;34.132;-118.018;2023-03-21T01:14:36;99756.94;;;16.36;63.19
50368;BME280;36281;34.132;-118.018;2023-03-21T01:17:05;99756.81;;;16.25;63.23
50368;BME280;36281;34.132;-118.018;2023-03-21T01:19:34;99769.84;;;16.17;63.73
50368;BME280;36281;34.132;-118.018;2023-03-21T01:22:20;99784.69;;;16.08;63.97
50368;BME280;36281;34.132;-118.018;2023-03-21T01:24:49;99783.31;;;16.05;64.44
50368;BME280;36281;34.132;-118.018;2023-03-21T01:27:27;99773.38;;;16.00;64.73
50368;BME280;36281;34.132;-118.018;2023-03-21T01:29:56;99760.28;;;15.99;64.62
50368;BME280;36281;34.132;-118.018;2023-03-21T01:32:26;99760.22;;;15.94;64.79
50368;BME280;36281;34.132;-118.018;2023-03-21T01:34:55;99770.09;;;15.93;64.53
50368;BME280;36281;34.132;-118.018;2023-03-21T01:37:26;99786.13;;;15.93;64.45
50368;BME280;36281;34.132;-118.018;2023-03-21T01:39:55;99787.69;;;15.89;64.53
50368;BME280;36281;34.132;-118.018;2023-03-21T01:42:24;99790.03;;;15.86;64.51
50368;BME280;36281;34.132;-118.018;2023-03-21T01:44:56;99780.91;;;15.82;64.64
50368;BME280;36281;34.132;-118.018;2023-03-21T01:47:25;99761.59;;;15.74;64.31
50368;BME280;36281;34.132;-118.018;2023-03-21T01:49:56;99735.94;;;15.73;64.64
50368;BME280;36281;34.132;-118.018;2023-03-21T01:52:31;99718.50;;;15.66;64.99
50368;BME280;36281;34.132;-118.018;2023-03-21T01:55:06;99724.41;;;15.68;64.70
50368;BME280;36281;34.132;-118.018;2023-03-21T01:57:41;99739.31;;;15.64;64.50
50368;BME280;36281;34.132;-118.018;2023-03-21T02:00:31;99769.13;;;15.61;65.02
50368;BME280;36281;34.132;-118.018;2023-03-21T02:03:03;99787.50;;;15.57;64.94
50368;BME280;36281;34.132;-118.018;2023-03-21T02:05:51;99777.63;;;15.58;65.28
50368;BME280;36281;34.132;-118.018;2023-03-21T02:08:24;99761.84;;;15.56;65.00
50368;BME280;36281;34.132;-118.018;2023-03-21T02:11:06;99758.31;;;15.50;64.47
50368;BME280;36281;34.132;-118.018;2023-03-21T02:13:37;99755.34;;;15.47;64.52
50368;BME280;36281;34.132;-118.018;2023-03-21T02:16:12;99756.16;;;15.47;64.44
50368;BME280;36281;34.132;-118.018;2023-03-21T02:18:46;99743.28;;;15.44;64.43
50368;BME280;36281;34.132;-118.018;2023-03-21T02:21:44;99721.00;;;15.34;64.32
50368;BME280;36281;34.132;-118.018;2023-03-21T02:24:50;99745.06;;;15.39;64.31
50368;BME280;36281;34.132;-118.018;2023-03-21T02:27:33;99766.34;;;15.34;64.41
50368;BME280;36281;34.132;-118.018;2023-03-21T02:30:52;99769.50;;;15.31;64.58
50368;BME280;36281;34.132;-118.018;2023-03-21T02:33:52;99773.47;;;15.28;64.85
50368;BME280;36281;34.132;-118.018;2023-03-21T02:36:47;99757.16;;;15.24;65.04
50368;BME280;36281;34.132;-118.018;2023-03-21T02:39:22;99740.03;;;15.04;65.07
50368;BME280;36281;34.132;-118.018;2023-03-21T02:42:01;99710.22;;;14.90;65.12
50368;BME280;36281;34.132;-118.018;2023-03-21T02:44:38;99754.06;;;15.16;64.97
50368;BME280;36281;34.132;-118.018;2023-03-21T02:47:12;99764.66;;;15.11;65.15
50368;BME280;36281;34.132;-118.018;2023-03-21T02:49:48;99779.06;;;15.10;65.18
50368;BME280;36281;34.132;-118.018;2023-03-21T02:52:24;99774.78;;;15.09;65.61
50368;BME280;36281;34.132;-118.018;2023-03-21T02:55:07;99771.56;;;15.07;66.02
50368;BME280;36281;34.132;-118.018;2023-03-21T02:57:42;99761.94;;;15.06;66.39
50368;BME280;36281;34.132;-118.018;2023-03-21T03:00:17;99768.56;;;15.03;66.31
50368;BME280;36281;34.132;-118.018;2023-03-21T03:02:47;99762.66;;;15.01;66.47
50368;BME280;36281;34.132;-118.018;2023-03-21T03:05:36;99759.97;;;15.01;66.18
50368;BME280;36281;34.132;-118.018;2023-03-21T03:08:24;99757.09;;;15.03;66.34
50368;BME280;36281;34.132;-118.018;2023-03-21T03:11:20;99763.38;;;14.96;65.78
50368;BME280;36281;34.132;-118.018;2023-03-21T03:17:07;99780.34;;;14.90;65.09
50368;BME280;36281;34.132;-118.018;2023-03-21T03:19:45;99781.31;;;14.84;65.14
50368;BME280;36281;34.132;-118.018;2023-03-21T03:22:23;99763.72;;;14.83;65.25
50368;BME280;36281;34.132;-118.018;2023-03-21T03:24:58;99740.78;;;14.82;65.40
50368;BME280;36281;34.132;-118.018;2023-03-21T03:27:46;99755.72;;;14.83;65.27
50368;BME280;36281;34.132;-118.018;2023-03-21T03:30:17;99759.44;;;14.82;65.11
50368;BME280;36281;34.132;-118.018;2023-03-21T03:32:50;99749.00;;;14.81;65.21
50368;BME280;36281;34.132;-118.018;2023-03-21T03:35:21;99750.53;;;14.77;65.32
50368;BME280;36281;34.132;-118.018;2023-03-21T03:37:54;99739.66;;;14.78;66.22
50368;BME280;36281;34.132;-118.018;2023-03-21T03:40:29;99751.03;;;14.73;65.80
50368;BME280;36281;34.132;-118.018;2023-03-21T03:43:04;99765.63;;;14.71;65.66
50368;BME280;36281;34.132;-118.018;2023-03-21T03:45:46;99762.25;;;14.59;66.00
50368;BME280;36281;34.132;-118.018;2023-03-21T03:48:20;99776.78;;;14.68;65.93
50368;BME280;36281;34.132;-118.018;2023-03-21T03:50:55;99788.00;;;14.70;65.76
50368;BME280;36281;34.132;-118.018;2023-03-21T03:53:32;99772.75;;;14.65;65.66
50368;BME280;36281;34.132;-118.018;2023-03-21T03:56:07;99779.69;;;14.66;65.24
50368;BME280;36281;34.132;-118.018;2023-03-21T03:58:39;99774.84;;;14.63;65.99
50368;BME280;36281;34.132;-118.018;2023-03-21T04:01:12;99736.78;;;14.51;66.98
50368;BME280;36281;34.132;-118.018;2023-03-21T04:03:43;99748.25;;;14.52;67.50
50368;BME280;36281;34.132;-118.018;2023-03-21T04:06:21;99755.38;;;14.63;66.54
50368;BME280;36281;34.132;-118.018;2023-03-21T04:08:50;99739.63;;;14.61;66.56
50368;BME280;36281;34.132;-118.018;2023-03-21T04:11:21;99747.31;;;14.58;67.25
50368;BME280;36281;34.132;-118.018;2023-03-21T04:13:50;99767.56;;;14.59;67.38
50368;BME280;36281;34.132;-118.018;2023-03-21T04:16:19;99779.28;;;14.58;66.67
50368;BME280;36281;34.132;-118.018;2023-03-21T04:18:48;99786.69;;;14.56;66.14
50368;BME280;36281;34.132;-118.018;2023-03-21T04:21:18;99798.97;;;14.57;65.82
50368;BME280;36281;34.132;-118.018;2023-03-21T04:23:47;99803.75;;;14.55;65.60
50368;BME280;36281;34.132;-118.018;2023-03-21T04:26:16;99803.41;;;14.51;65.67
50368;BME280;36281;34.132;-118.018;2023-03-21T04:28:47;99805.50;;;14.49;65.81
50368;BME280;36281;34.132;-118.018;2023-03-21T04:31:17;99807.38;;;14.48;66.06
50368;BME280;36281;34.132;-118.018;2023-03-21T04:33:52;99801.22;;;14.48;66.26
50368;BME280;36281;34.132;-118.018;2023-03-21T04:36:23;99797.03;;;14.40;66.26
50368;BME280;36281;34.132;-118.018;2023-03-21T04:38:58;99816.03;;;14.44;66.31
50368;BME280;36281;34.132;-118.018;2023-03-21T04:41:32;99819.50;;;14.44;67.08
50368;BME280;36281;34.132;-118.018;2023-03-21T04:44:03;99826.94;;;14.42;67.92
50368;BME280;36281;34.132;-118.018;2023-03-21T04:46:32;99814.66;;;14.41;67.49
50368;BME280;36281;34.132;-118.018;2023-03-21T04:49:01;99813.53;;;14.37;67.71
50368;BME280;36281;34.132;-118.018;2023-03-21T04:51:30;99822.88;;;14.40;68.16
50368;BME280;36281;34.132;-118.018;2023-03-21T04:53:59;99811.09;;;14.36;67.96
50368;BME280;36281;34.132;-118.018;2023-03-21T04:56:29;99813.75;;;14.36;68.09
50368;BME280;36281;34.132;-118.018;2023-03-21T04:59:04;99808.66;;;14.34;68.34
50368;BME280;36281;34.132;-118.018;2023-03-21T05:01:34;99795.72;;;14.26;68.68
50368;BME280;36281;34.132;-118.018;2023-03-21T05:04:03;99801.84;;;14.27;68.64
50368;BME280;36281;34.132;-118.018;2023-03-21T05:06:33;99805.34;;;14.27;68.82
50368;BME280;36281;34.132;-118.018;2023-03-21T05:09:02;99782.78;;;14.18;69.17
50368;BME280;36281;34.132;-118.018;2023-03-21T05:11:37;99799.09;;;14.21;69.17
50368;BME280;36281;34.132;-118.018;2023-03-21T05:14:10;99802.56;;;14.22;69.55
50368;BME280;36281;34.132;-118.018;2023-03-21T05:16:40;99776.78;;;14.11;69.50
50368;BME280;36281;34.132;-118.018;2023-03-21T05:19:15;99790.78;;;14.18;69.94
50368;BME280;36281;34.132;-118.018;2023-03-21T05:21:46;99813.69;;;14.19;70.00
50368;BME280;36281;34.132;-118.018;2023-03-21T05:24:17;99816.25;;;14.14;70.37
50368;BME280;36281;34.132;-118.018;2023-03-21T05:26:47;99818.44;;;14.17;70.72
50368;BME280;36281;34.132;-118.018;2023-03-21T05:29:21;99813.09;;;14.17;70.89
50368;BME280;36281;34.132;-118.018;2023-03-21T05:31:50;99811.28;;;14.17;70.31
50368;BME280;36281;34.132;-118.018;2023-03-21T05:34:19;99832.34;;;14.19;71.23
50368;BME280;36281;34.132;-118.018;2023-03-21T05:36:48;99820.06;;;14.18;70.63
50368;BME280;36281;34.132;-118.018;2023-03-21T05:39:18;99802.13;;;14.13;71.26
50368;BME280;36281;34.132;-118.018;2023-03-21T05:41:47;99812.78;;;14.13;70.93
50368;BME280;36281;34.132;-118.018;2023-03-21T05:44:17;99821.34;;;14.15;72.09
50368;BME280;36281;34.132;-118.018;2023-03-21T05:46:48;99821.34;;;14.15;72.75
50368;BME280;36281;34.132;-118.018;2023-03-21T05:49:17;99821.59;;;14.14;72.27
50368;BME280;36281;34.132;-118.018;2023-03-21T05:51:46;99821.00;;;14.12;73.27
50368;BME280;36281;34.132;-118.018;2023-03-21T05:54:15;99808.97;;;14.09;73.87
50368;BME280;36281;34.132;-118.018;2023-03-21T05:56:44;99805.50;;;14.09;73.41
50368;BME280;36281;34.132;-118.018;2023-03-21T05:59:13;99791.13;;;14.10;73.73
50368;BME280;36281;34.132;-118.018;2023-03-21T06:01:42;99803.41;;;14.11;73.91
50368;BME280;36281;34.132;-118.018;2023-03-21T06:04:13;99797.53;;;14.09;73.72
50368;BME280;36281;34.132;-118.018;2023-03-21T06:06:42;99793.25;;;14.08;73.83
50368;BME280;36281;34.132;-118.018;2023-03-21T06:09:11;99770.00;;;13.91;73.88
50368;BME280;36281;34.132;-118.018;2023-03-21T06:11:45;99801.22;;;14.08;73.82
50368;BME280;36281;34.132;-118.018;2023-03-21T06:14:16;99796.13;;;14.06;74.37
50368;BME280;36281;34.132;-118.018;2023-03-21T06:16:45;99787.56;;;14.04;74.94
50368;BME280;36281;34.132;-118.018;2023-03-21T06:19:16;99788.72;;;14.08;75.54
50368;BME280;36281;34.132;-118.018;2023-03-21T06:21:45;99763.34;;;14.06;76.18
50368;BME280;36281;34.132;-118.018;2023-03-21T06:24:15;99744.72;;;14.06;76.41
50368;BME280;36281;34.132;-118.018;2023-03-21T06:26:45;99744.38;;;14.02;77.47
50368;BME280;36281;34.132;-118.018;2023-03-21T06:29:14;99746.72;;;13.99;78.46
50368;BME280;36281;34.132;-118.018;2023-03-21T06:31:43;99756.56;;;13.98;80.02
50368;BME280;36281;34.132;-118.018;2023-03-21T06:34:12;99761.56;;;13.94;80.95
50368;BME280;36281;34.132;-118.018;2023-03-21T06:36:44;99760.75;;;13.94;81.87
50368;BME280;36281;34.132;-118.018;2023-03-21T06:39:14;99766.53;;;13.91;81.95
50368;BME280;36281;34.132;-118.018;2023-03-21T06:41:43;99754.97;;;13.85;82.96
50368;BME280;36281;34.132;-118.018;2023-03-21T06:44:12;99758.59;;;13.79;83.48
50368;BME280;36281;34.132;-118.018;2023-03-21T06:46:42;99761.25;;;13.79;83.61
50368;BME280;36281;34.132;-118.018;2023-03-21T06:49:11;99748.06;;;13.73;83.54
50368;BME280;36281;34.132;-118.018;2023-03-21T06:51:40;99746.13;;;13.68;84.18
50368;BME280;36281;34.132;-118.018;2023-03-21T06:54:11;99756.66;;;13.63;85.12
50368;BME280;36281;34.132;-118.018;2023-03-21T06:56:42;99749.13;;;13.60;85.42
50368;BME280;36281;34.132;-118.018;2023-03-21T06:59:11;99750.63;;;13.56;85.16
50368;BME280;36281;34.132;-118.018;2023-03-21T07:01:40;99752.94;;;13.52;85.68
50368;BME280;36281;34.132;-118.018;2023-03-21T07:04:10;99766.13;;;13.47;86.05
50368;BME280;36281;34.132;-118.018;2023-03-21T07:06:39;99754.25;;;13.38;86.42
50368;BME280;36281;34.132;-118.018;2023-03-21T07:09:10;99762.56;;;13.41;87.71
50368;BME280;36281;34.132;-118.018;2023-03-21T07:11:39;99754.81;;;13.40;87.99
50368;BME280;36281;34.132;-118.018;2023-03-21T07:14:09;99750.31;;;13.40;88.53
50368;BME280;36281;34.132;-118.018;2023-03-21T07:16:38;99755.28;;;13.37;89.65
50368;BME280;36281;34.132;-118.018;2023-03-21T07:19:08;99756.31;;;13.36;90.02
50368;BME280;36281;34.132;-118.018;2023-03-21T07:21:37;99740.00;;;13.20;90.57
50368;BME280;36281;34.132;-118.018;2023-03-21T07:24:06;99757.81;;;13.32;90.88
50368;BME280;36281;34.132;-118.018;2023-03-21T07:26:37;99744.31;;;13.33;91.58
50368;BME280;36281;34.132;-118.018;2023-03-21T07:29:06;99741.06;;;13.31;91.98
50368;BME280;36281;34.132;-118.018;2023-03-21T07:31:35;99746.63;;;13.30;92.64
50368;BME280;36281;34.132;-118.018;2023-03-21T07:34:04;99751.94;;;13.30;92.67
50368;BME280;36281;34.132;-118.018;2023-03-21T07:36:34;99760.59;;;13.25;93.07
50368;BME280;36281;34.132;-118.018;2023-03-21T07:39:04;99748.22;;;13.19;92.77
50368;BME280;36281;34.132;-118.018;2023-03-21T07:41:33;99746.25;;;13.14;93.03
50368;BME280;36281;34.132;-118.018;2023-03-21T07:44:04;99746.50;;;13.13;93.24
50368;BME280;36281;34.132;-118.018;2023-03-21T07:46:38;99740.00;;;13.09;93.30
50368;BME280;36281;34.132;-118.018;2023-03-21T07:49:07;99744.72;;;13.07;93.75
50368;BME280;36281;34.132;-118.018;2023-03-21T07:51:36;99751.31;;;13.04;93.29
50368;BME280;36281;34.132;-118.018;2023-03-21T07:54:05;99745.22;;;13.04;93.17
50368;BME280;36281;34.132;-118.018;2023-03-21T07:56:35;99746.81;;;13.05;92.97
50368;BME280;36281;34.132;-118.018;2023-03-21T07:59:06;99744.03;;;13.00;93.54
50368;BME280;36281;34.132;-118.018;2023-03-21T08:01:35;99742.44;;;12.99;94.47
50368;BME280;36281;34.132;-118.018;2023-03-21T08:04:04;99744.50;;;12.97;95.24
50368;BME280;36281;34.132;-118.018;2023-03-21T08:06:34;99749.25;;;12.94;96.20
50368;BME280;36281;34.132;-118.018;2023-03-21T08:09:03;99737.00;;;12.93;97.11
50368;BME280;36281;34.132;-118.018;2023-03-21T08:11:32;99747.84;;;12.92;97.16
50368;BME280;36281;34.132;-118.018;2023-03-21T08:14:01;99749.13;;;12.89;97.36
50368;BME280;36281;34.132;-118.018;2023-03-21T08:16:32;99732.81;;;12.86;97.17
50368;BME280;36281;34.132;-118.018;2023-03-21T08:19:01;99725.53;;;12.81;97.36
50368;BME280;36281;34.132;-118.018;2023-03-21T08:21:30;99718.03;;;12.78;97.72
50368;BME280;36281;34.132;-118.018;2023-03-21T08:23:59;99710.94;;;12.72;97.43
50368;BME280;36281;34.132;-118.018;2023-03-21T08:26:28;99707.72;;;12.70;97.68
50368;BME280;36281;34.132;-118.018;2023-03-21T08:28:59;99700.78;;;12.69;97.87
50368;BME280;36281;34.132;-118.018;2023-03-21T08:31:29;99697.53;;;12.67;99.00
50368;BME280;36281;34.132;-118.018;2023-03-21T08:33:59;99697.78;;;12.65;99.09
50368;BME280;36281;34.132;-118.018;2023-03-21T08:36:29;99692.72;;;12.64;99.40
50368;BME280;36281;34.132;-118.018;2023-03-21T08:38:59;99687.47;;;12.57;99.36
50368;BME280;36281;34.132;-118.018;2023-03-21T08:41:33;99697.22;;;12.63;99.11
50368;BME280;36281;34.132;-118.018;2023-03-21T08:44:03;99699.50;;;12.60;99.13
50368;BME280;36281;34.132;-118.018;2023-03-21T08:46:33;99697.28;;;12.57;98.35
50368;BME280;36281;34.132;-118.018;2023-03-21T08:49:04;99684.50;;;12.54;97.67
50368;BME280;36281;34.132;-118.018;2023-03-21T08:51:33;99689.00;;;12.53;97.22
50368;BME280;36281;34.132;-118.018;2023-03-21T08:54:02;99691.28;;;12.50;97.24
50368;BME280;36281;34.132;-118.018;2023-03-21T08:56:31;99691.75;;;12.47;97.14
50368;BME280;36281;34.132;-118.018;2023-03-21T08:59:01;99680.53;;;12.45;97.02
50368;BME280;36281;34.132;-118.018;2023-03-21T09:01:31;99683.19;;;12.45;97.07
50368;BME280;36281;34.132;-118.018;2023-03-21T09:04:01;99675.09;;;12.39;97.03
50368;BME280;36281;34.132;-118.018;2023-03-21T09:06:31;99678.44;;;12.35;97.13
50368;BME280;36281;34.132;-118.018;2023-03-21T09:09:01;99667.22;;;12.33;96.62
50368;BME280;36281;34.132;-118.018;2023-03-21T09:11:31;99670.44;;;12.23;96.28
50368;BME280;36281;34.132;-118.018;2023-03-21T09:14:00;99671.34;;;12.17;96.11
50368;BME280;36281;34.132;-118.018;2023-03-21T09:16:29;99672.38;;;12.16;95.84
50368;BME280;36281;34.132;-118.018;2023-03-21T09:18:58;99665.91;;;12.12;94.64
50368;BME280;36281;34.132;-118.018;2023-03-21T09:21:27;99665.09;;;12.11;94.59
50368;BME280;36281;34.132;-118.018;2023-03-21T09:23:58;99661.06;;;12.09;94.96
50368;BME280;36281;34.132;-118.018;2023-03-21T09:26:28;99650.09;;;12.05;94.49
50368;BME280;36281;34.132;-118.018;2023-03-21T09:28:57;99645.00;;;12.04;93.80
50368;BME280;36281;34.132;-118.018;2023-03-21T09:31:28;99639.69;;;12.04;94.03
50368;BME280;36281;34.132;-118.018;2023-03-21T09:33:58;99627.78;;;11.95;94.08
50368;BME280;36281;34.132;-118.018;2023-03-21T09:36:27;99622.25;;;11.96;94.71
50368;BME280;36281;34.132;-118.018;2023-03-21T09:39:01;99612.06;;;11.93;94.45
50368;BME280;36281;34.132;-118.018;2023-03-21T09:41:53;99606.56;;;11.95;94.64
50368;BME280;36281;34.132;-118.018;2023-03-21T09:44:34;99592.69;;;11.93;95.13
50368;BME280;36281;34.132;-118.018;2023-03-21T09:47:15;99584.97;;;11.91;95.28
50368;BME280;36281;34.132;-118.018;2023-03-21T09:49:51;99578.28;;;11.88;95.26
50368;BME280;36281;34.132;-118.018;2023-03-21T09:52:42;99568.91;;;11.86;95.67
50368;BME280;36281;34.132;-118.018;2023-03-21T09:55:19;99557.50;;;11.85;95.22
50368;BME280;36281;34.132;-118.018;2023-03-21T09:57:50;99550.97;;;11.81;95.14
50368;BME280;36281;34.132;-118.018;2023-03-21T10:00:26;99541.41;;;11.80;95.23
50368;BME280;36281;34.132;-118.018;2023-03-21T10:02:59;99535.31;;;11.80;95.05
50368;BME280;36281;34.132;-118.018;2023-03-21T10:05:32;99530.91;;;11.74;94.94
50368;BME280;36281;34.132;-118.018;2023-03-21T10:08:05;99536.09;;;11.69;95.08
50368;BME280;36281;34.132;-118.018;2023-03-21T10:10:42;99528.81;;;11.64;95.07
50368;BME280;36281;34.132;-118.018;2023-03-21T10:13:16;99529.81;;;11.63;95.61
50368;BME280;36281;34.132;-118.018;2023-03-21T10:15:45;99526.59;;;11.61;95.51
50368;BME280;36281;34.132;-118.018;2023-03-21T10:18:20;99530.72;;;11.57;95.28
50368;BME280;36281;34.132;-118.018;2023-03-21T10:20:51;99546.88;;;11.55;95.29
50368;BME280;36281;34.132;-118.018;2023-03-21T10:23:23;99550.78;;;11.53;94.82
50368;BME280;36281;34.132;-118.018;2023-03-21T10:25:58;99554.09;;;11.48;94.47
50368;BME280;36281;34.132;-118.018;2023-03-21T10:28:30;99545.66;;;11.39;94.60
50368;BME280;36281;34.132;-118.018;2023-03-21T10:31:19;99568.03;;;11.44;94.78
50368;BME280;36281;34.132;-118.018;2023-03-21T10:33:50;99568.34;;;11.35;94.50
50368;BME280;36281;34.132;-118.018;2023-03-21T10:36:21;99551.53;;;11.42;94.98
50368;BME280;36281;34.132;-118.018;2023-03-21T10:38:54;99551.97;;;11.38;95.16
50368;BME280;36281;34.132;-118.018;2023-03-21T10:41:25;99543.69;;;11.35;95.09
50368;BME280;36281;34.132;-118.018;2023-03-21T10:44:06;99536.78;;;11.34;95.47
50368;BME280;36281;34.132;-118.018;2023-03-21T10:46:35;99535.50;;;11.36;96.44
50368;BME280;36281;34.132;-118.018;2023-03-21T10:49:06;99534.31;;;11.32;96.56
50368;BME280;36281;34.132;-118.018;2023-03-21T10:51:37;99536.97;;;11.32;96.81
50368;BME280;36281;34.132;-118.018;2023-03-21T10:54:10;99546.78;;;11.32;97.06
50368;BME280;36281;34.132;-118.018;2023-03-21T10:56:50;99536.16;;;11.32;97.27
50368;BME280;36281;34.132;-118.018;2023-03-21T10:59:21;99504.31;;;11.20;96.67
50368;BME280;36281;34.132;-118.018;2023-03-21T11:01:51;99512.53;;;11.30;97.11
50368;BME280;36281;34.132;-118.018;2023-03-21T11:04:25;99503.41;;;11.26;97.12
50368;BME280;36281;34.132;-118.018;2023-03-21T11:06:58;99502.00;;;11.24;97.31
50368;BME280;36281;34.132;-118.018;2023-03-21T11:09:43;99512.97;;;11.27;97.52
50368;BME280;36281;34.132;-118.018;2023-03-21T11:12:16;99523.81;;;11.26;97.29
50368;BME280;36281;34.132;-118.018;2023-03-21T11:14:47;99519.75;;;11.23;97.22
50368;BME280;36281;34.132;-118.018;2023-03-21T11:17:21;99514.47;;;11.23;97.09
50368;BME280;36281;34.132;-118.018;2023-03-21T11:19:52;99524.50;;;11.21;97.11
50368;BME280;36281;34.132;-118.018;2023-03-21T11:22:22;99524.34;;;11.16;96.64
50368;BME280;36281;34.132;-118.018;2023-03-21T11:24:56;99518.81;;;11.18;96.33
50368;BME280;36281;34.132;-118.018;2023-03-21T11:27:28;99509.41;;;11.22;96.46
50368;BME280;36281;34.132;-118.018;2023-03-21T11:30:00;99505.81;;;11.16;96.60
50368;BME280;36281;34.132;-118.018;2023-03-21T11:32:32;99493.50;;;11.03;96.52
50368;BME280;36281;34.132;-118.018;2023-03-21T11:35:05;99510.28;;;11.16;97.07
50368;BME280;36281;34.132;-118.018;2023-03-21T11:37:38;99500.94;;;11.13;96.64
50368;BME280;36281;34.132;-118.018;2023-03-21T11:40:19;99489.31;;;11.14;96.38
50368;BME280;36281;34.132;-118.018;2023-03-21T11:42:52;99489.75;;;11.11;96.27
50368;BME280;36281;34.132;-118.018;2023-03-21T11:45:22;99485.56;;;11.03;96.48
50368;BME280;36281;34.132;-118.018;2023-03-21T11:47:53;99482.91;;;11.03;97.07
50368;BME280;36281;34.132;-118.018;2023-03-21T11:50:28;99467.47;;;11.00;96.78
50368;BME280;36281;34.132;-118.018;2023-03-21T11:53:18;99459.53;;;11.00;96.53
50368;BME280;36281;34.132;-118.018;2023-03-21T11:55:59;99473.81;;;10.99;96.59
50368;BME280;36281;34.132;-118.018;2023-03-21T11:58:40;99460.22;;;10.77;96.10
50368;BME280;36281;34.132;-118.018;2023-03-21T12:01:17;99493.59;;;10.97;95.79
50368;BME280;36281;34.132;-118.018;2023-03-21T12:04:06;99471.22;;;10.93;95.69
50368;BME280;36281;34.132;-118.018;2023-03-21T12:06:44;99450.81;;;10.81;95.34
50368;BME280;36281;34.132;-118.018;2023-03-21T12:09:26;99459.94;;;10.85;95.32
50368;BME280;36281;34.132;-118.018;2023-03-21T12:12:05;99440.56;;;10.85;94.68
50368;BME280;36281;34.132;-118.018;2023-03-21T12:14:45;99435.56;;;10.77;94.43
50368;BME280;36281;34.132;-118.018;2023-03-21T12:17:28;99435.81;;;10.75;93.90
50368;BME280;36281;34.132;-118.018;2023-03-21T12:20:26;99416.66;;;10.73;93.66
50368;BME280;36281;34.132;-118.018;2023-03-21T12:23:19;99410.78;;;10.71;92.78
50368;BME280;36281;34.132;-118.018;2023-03-21T12:25:59;99406.59;;;10.64;92.45
50368;BME280;36281;34.132;-118.018;2023-03-21T12:28:38;99388.06;;;10.64;92.15
50368;BME280;36281;34.132;-118.018;2023-03-21T12:31:20;99384.28;;;10.59;91.44
50368;BME280;36281;34.132;-118.018;2023-03-21T12:34:02;99371.09;;;10.53;90.45
50368;BME280;36281;34.132;-118.018;2023-03-21T12:36:48;99353.59;;;10.52;90.38
50368;BME280;36281;34.132;-118.018;2023-03-21T12:39:26;99350.56;;;10.48;90.19
50368;BME280;36281;34.132;-118.018;2023-03-21T12:44:58;99331.72;;;10.45;90.55
50368;BME280;36281;34.132;-118.018;2023-03-21T12:47:40;99335.81;;;10.41;90.92
50368;BME280;36281;34.132;-118.018;2023-03-21T12:50:14;99348.25;;;10.40;91.07
50368;BME280;36281;34.132;-118.018;2023-03-21T12:52:49;99351.91;;;10.39;91.40
50368;BME280;36281;34.132;-118.018;2023-03-21T12:55:21;99338.06;;;10.25;91.65
50368;BME280;36281;34.132;-118.018;2023-03-21T12:57:55;99333.72;;;10.31;92.48
50368;BME280;36281;34.132;-118.018;2023-03-21T13:00:33;99301.00;;;10.25;92.13
50368;BME280;36281;34.132;-118.018;2023-03-21T13:03:05;99298.50;;;10.30;91.97
50368;BME280;36281;34.132;-118.018;2023-03-21T13:05:40;99294.66;;;10.26;92.03
50368;BME280;36281;34.132;-118.018;2023-03-21T13:08:17;99279.44;;;10.22;92.27